sensor_id;sensor_type;location;lat;lon;timestamp;pressure;altitude;pressure_sealevel;temperature;humidity
77086;BME280;66014;53.134;18.006;2023-05-03T00:00:29;101902.14;;;8.79;50.19
77086;BME280;66014;53.134;18.006;2023-05-03T00:03:09;101903.83;;;8.74;50.31
77086;BME280;66014;53.134;18.006;2023-05-03T00:05:36;101904.60;;;8.69;50.45
77086;BME280;66014;53.134;18.006;2023-05-03T00:08:02;101911.35;;;8.65;50.55
77086;BME280;66014;53.134;18.006;2023-05-03T00:10:29;101913.95;;;8.62;50.66
77086;BME280;66014;53.134;18.006;2023-05-03T00:12:55;101913.45;;;8.57;50.73
77086;BME280;66014;53.134;18.006;2023-05-03T00:15:21;101913.27;;;8.53;50.80
77086;BME280;66014;53.134;18.006;2023-05-03T00:17:47;101915.84;;;8.48;50.99
77086;BME280;66014;53.134;18.006;2023-05-03T00:20:13;101916.69;;;8.42;51.03
77086;BME280;66014;53.134;18.006;2023-05-03T00:22:40;101918.08;;;8.37;51.29
77086;BME280;66014;53.134;18.006;2023-05-03T00:25:08;101918.05;;;8.33;51.35
77086;BME280;66014;53.134;18.006;2023-05-03T00:27:34;101916.12;;;8.27;51.54
77086;BME280;66014;53.134;18.006;2023-05-03T00:30:01;101917.40;;;8.20;51.70
77086;BME280;66014;53.134;18.006;2023-05-03T00:32:27;101917.23;;;8.16;51.94
77086;BME280;66014;53.134;18.006;2023-05-03T00:34:54;101920.94;;;8.12;52.11
77086;BME280;66014;53.134;18.006;2023-05-03T00:37:21;101922.22;;;8.10;52.25
77086;BME280;66014;53.134;18.006;2023-05-03T00:39:47;101922.62;;;8.07;52.39
77086;BME280;66014;53.134;18.006;2023-05-03T00:42:13;101922.16;;;8.06;52.48
77086;BME280;66014;53.134;18.006;2023-05-03T00:44:39;101924.55;;;8.05;52.72
77086;BME280;66014;53.134;18.006;2023-05-03T00:47:05;101927.02;;;8.03;52.67
77086;BME280;66014;53.134;18.006;2023-05-03T00:49:32;101925.84;;;8.00;52.95
77086;BME280;66014;53.134;18.006;2023-05-03T00:51:58;101928.85;;;7.96;53.02
77086;BME280;66014;53.134;18.006;2023-05-03T00:54:26;101930.02;;;7.95;52.96
77086;BME280;66014;53.134;18.006;2023-05-03T00:56:54;101931.23;;;7.93;53.09
77086;BME280;66014;53.134;18.006;2023-05-03T00:59:21;101931.28;;;7.92;53.21
77086;BME280;66014;53.134;18.006;2023-05-03T01:01:51;101927.85;;;7.92;53.29
77086;BME280;66014;53.134;18.006;2023-05-03T01:04:19;101930.62;;;7.90;53.36
77086;BME280;66014;53.134;18.006;2023-05-03T01:09:48;101932.96;;;7.83;53.47
77086;BME280;66014;53.134;18.006;2023-05-03T01:12:42;101930.41;;;7.80;53.61
77086;BME280;66014;53.134;18.006;2023-05-03T01:15:48;101931.56;;;7.77;53.78
77086;BME280;66014;53.134;18.006;2023-05-03T01:18:26;101930.73;;;7.76;53.94
77086;BME280;66014;53.134;18.006;2023-05-03T01:20:55;101928.64;;;7.74;54.03
77086;BME280;66014;53.134;18.006;2023-05-03T01:25:54;101933.23;;;7.70;54.28
77086;BME280;66014;53.134;18.006;2023-05-03T01:28:21;101932.73;;;7.67;54.33
77086;BME280;66014;53.134;18.006;2023-05-03T01:30:48;101936.83;;;7.65;54.51
77086;BME280;66014;53.134;18.006;2023-05-03T01:33:22;101937.29;;;7.61;54.52
77086;BME280;66014;53.134;18.006;2023-05-03T01:35:54;101934.02;;;7.58;54.48
77086;BME280;66014;53.134;18.006;2023-05-03T01:38:22;101933.98;;;7.55;54.73
77086;BME280;66014;53.134;18.006;2023-05-03T01:40:51;101934.25;;;7.51;54.72
77086;BME280;66014;53.134;18.006;2023-05-03T01:43:18;101938.75;;;7.48;54.83
77086;BME280;66014;53.134;18.006;2023-05-03T01:45:45;101936.79;;;7.44;54.81
77086;BME280;66014;53.134;18.006;2023-05-03T01:48:14;101935.05;;;7.40;55.03
77086;BME280;66014;53.134;18.006;2023-05-03T01:50:41;101935.13;;;7.37;55.12
77086;BME280;66014;53.134;18.006;2023-05-03T01:53:07;101940.77;;;7.33;55.26
77086;BME280;66014;53.134;18.006;2023-05-03T01:55:33;101940.84;;;7.29;55.21
77086;BME280;66014;53.134;18.006;2023-05-03T01:57:58;101941.52;;;7.26;55.42
77086;BME280;66014;53.134;18.006;2023-05-03T02:00:25;101945.34;;;7.22;55.47
77086;BME280;66014;53.134;18.006;2023-05-03T02:02:51;101941.71;;;7.19;55.56
77086;BME280;66014;53.134;18.006;2023-05-03T02:05:17;101944.21;;;7.17;55.68
77086;BME280;66014;53.134;18.006;2023-05-03T02:07:43;101943.61;;;7.13;55.73
77086;BME280;66014;53.134;18.006;2023-05-03T02:10:09;101943.98;;;7.11;55.77
77086;BME280;66014;53.134;18.006;2023-05-03T02:12:40;101942.93;;;7.06;55.89
77086;BME280;66014;53.134;18.006;2023-05-03T02:15:06;101945.48;;;7.03;56.00
77086;BME280;66014;53.134;18.006;2023-05-03T02:17:32;101942.70;;;7.01;56.01
77086;BME280;66014;53.134;18.006;2023-05-03T02:19:58;101943.52;;;6.97;56.11
77086;BME280;66014;53.134;18.006;2023-05-03T02:22:24;101947.00;;;6.94;56.22
77086;BME280;66014;53.134;18.006;2023-05-03T02:24:50;101947.01;;;6.89;56.27
77086;BME280;66014;53.134;18.006;2023-05-03T02:27:16;101946.59;;;6.83;56.53
77086;BME280;66014;53.134;18.006;2023-05-03T02:29:42;101943.35;;;6.77;56.82
77086;BME280;66014;53.134;18.006;2023-05-03T02:32:08;101946.48;;;6.74;56.80
77086;BME280;66014;53.134;18.006;2023-05-03T02:34:34;101943.46;;;6.72;57.00
77086;BME280;66014;53.134;18.006;2023-05-03T02:37:00;101948.00;;;6.70;57.18
77086;BME280;66014;53.134;18.006;2023-05-03T02:39:25;101941.97;;;6.66;57.15
77086;BME280;66014;53.134;18.006;2023-05-03T02:41:53;101946.17;;;6.62;57.45
77086;BME280;66014;53.134;18.006;2023-05-03T02:44:19;101943.40;;;6.59;57.44
77086;BME280;66014;53.134;18.006;2023-05-03T02:46:45;101948.98;;;6.56;57.64
77086;BME280;66014;53.134;18.006;2023-05-03T02:49:11;101946.50;;;6.51;57.76
77086;BME280;66014;53.134;18.006;2023-05-03T02:51:36;101947.73;;;6.49;57.93
77086;BME280;66014;53.134;18.006;2023-05-03T02:54:02;101950.26;;;6.44;58.06
77086;BME280;66014;53.134;18.006;2023-05-03T02:56:28;101952.41;;;6.41;58.17
77086;BME280;66014;53.134;18.006;2023-05-03T02:58:54;101950.30;;;6.39;58.25
77086;BME280;66014;53.134;18.006;2023-05-03T03:01:20;101949.58;;;6.39;58.29
77086;BME280;66014;53.134;18.006;2023-05-03T03:03:48;101949.52;;;6.38;58.35
77086;BME280;66014;53.134;18.006;2023-05-03T03:06:13;101952.85;;;6.36;58.59
77086;BME280;66014;53.134;18.006;2023-05-03T03:08:39;101958.42;;;6.32;58.80
77086;BME280;66014;53.134;18.006;2023-05-03T03:11:05;101958.54;;;6.29;58.79
77086;BME280;66014;53.134;18.006;2023-05-03T03:13:31;101961.95;;;6.26;59.00
77086;BME280;66014;53.134;18.006;2023-05-03T03:15:58;101960.48;;;6.22;59.08
77086;BME280;66014;53.134;18.006;2023-05-03T03:18:24;101964.13;;;6.18;59.23
77086;BME280;66014;53.134;18.006;2023-05-03T03:20:50;101962.38;;;6.16;59.18
77086;BME280;66014;53.134;18.006;2023-05-03T03:23:16;101971.67;;;6.14;59.37
77086;BME280;66014;53.134;18.006;2023-05-03T03:25:42;101971.71;;;6.13;59.34
77086;BME280;66014;53.134;18.006;2023-05-03T03:28:07;101974.06;;;6.12;59.50
77086;BME280;66014;53.134;18.006;2023-05-03T03:30:33;101972.39;;;6.09;59.43
77086;BME280;66014;53.134;18.006;2023-05-03T03:32:59;101978.15;;;6.10;59.64
77086;BME280;66014;53.134;18.006;2023-05-03T03:35:25;101979.23;;;6.05;59.93
77086;BME280;66014;53.134;18.006;2023-05-03T03:37:52;101978.02;;;6.03;59.80
77086;BME280;66014;53.134;18.006;2023-05-03T03:40:18;101980.88;;;6.02;59.90
77086;BME280;66014;53.134;18.006;2023-05-03T03:42:43;101980.41;;;6.01;60.03
77086;BME280;66014;53.134;18.006;2023-05-03T03:45:10;101981.75;;;6.00;60.07
77086;BME280;66014;53.134;18.006;2023-05-03T03:47:35;101982.74;;;5.98;60.06
77086;BME280;66014;53.134;18.006;2023-05-03T03:50:01;101984.91;;;6.00;60.06
77086;BME280;66014;53.134;18.006;2023-05-03T03:52:27;101988.52;;;6.01;60.24
77086;BME280;66014;53.134;18.006;2023-05-03T03:54:53;101994.03;;;6.03;60.35
77086;BME280;66014;53.134;18.006;2023-05-03T03:57:19;101999.52;;;6.00;60.36
77086;BME280;66014;53.134;18.006;2023-05-03T03:59:45;102000.48;;;5.99;60.37
77086;BME280;66014;53.134;18.006;2023-05-03T04:02:11;102002.52;;;6.00;60.38
77086;BME280;66014;53.134;18.006;2023-05-03T04:04:37;102002.27;;;5.99;60.57
77086;BME280;66014;53.134;18.006;2023-05-03T04:07:02;102006.48;;;5.97;60.62
77086;BME280;66014;53.134;18.006;2023-05-03T04:09:29;102005.75;;;5.97;60.64
77086;BME280;66014;53.134;18.006;2023-05-03T04:11:55;102009.04;;;5.98;60.58
77086;BME280;66014;53.134;18.006;2023-05-03T04:14:20;102009.55;;;5.98;60.85
77086;BME280;66014;53.134;18.006;2023-05-03T04:16:46;102016.05;;;5.98;60.79
77086;BME280;66014;53.134;18.006;2023-05-03T04:19:12;102019.55;;;6.01;60.71
77086;BME280;66014;53.134;18.006;2023-05-03T04:21:38;102026.27;;;6.05;60.74
77086;BME280;66014;53.134;18.006;2023-05-03T04:24:05;102029.52;;;6.11;60.76
77086;BME280;66014;53.134;18.006;2023-05-03T04:26:32;102033.33;;;6.17;60.69
77086;BME280;66014;53.134;18.006;2023-05-03T04:28:58;102034.13;;;6.22;60.56
77086;BME280;66014;53.134;18.006;2023-05-03T04:31:24;102035.71;;;6.27;60.59
77086;BME280;66014;53.134;18.006;2023-05-03T04:33:51;102037.14;;;6.29;60.68
77086;BME280;66014;53.134;18.006;2023-05-03T04:36:17;102035.77;;;6.33;60.68
77086;BME280;66014;53.134;18.006;2023-05-03T04:38:43;102037.50;;;6.40;60.55
77086;BME280;66014;53.134;18.006;2023-05-03T04:41:09;102040.48;;;6.45;60.79
77086;BME280;66014;53.134;18.006;2023-05-03T04:43:36;102039.36;;;6.48;60.83
77086;BME280;66014;53.134;18.006;2023-05-03T04:46:02;102041.23;;;6.53;60.65
77086;BME280;66014;53.134;18.006;2023-05-03T04:48:28;102043.23;;;6.59;61.03
77086;BME280;66014;53.134;18.006;2023-05-03T04:50:54;102044.46;;;6.64;60.88
77086;BME280;66014;53.134;18.006;2023-05-03T04:53:20;102045.58;;;6.70;60.76
77086;BME280;66014;53.134;18.006;2023-05-03T04:55:46;102051.34;;;6.77;60.82
77086;BME280;66014;53.134;18.006;2023-05-03T04:58:12;102051.01;;;6.81;60.84
77086;BME280;66014;53.134;18.006;2023-05-03T05:00:40;102051.59;;;6.85;60.77
77086;BME280;66014;53.134;18.006;2023-05-03T05:03:06;102054.84;;;6.91;60.79
77086;BME280;66014;53.134;18.006;2023-05-03T05:05:32;102054.15;;;6.97;60.72
77086;BME280;66014;53.134;18.006;2023-05-03T05:07:58;102053.88;;;7.03;60.74
77086;BME280;66014;53.134;18.006;2023-05-03T05:10:24;102059.73;;;7.09;60.74
77086;BME280;66014;53.134;18.006;2023-05-03T05:12:52;102060.09;;;7.16;60.59
77086;BME280;66014;53.134;18.006;2023-05-03T05:15:18;102057.61;;;7.20;60.72
77086;BME280;66014;53.134;18.006;2023-05-03T05:17:43;102064.67;;;7.24;60.60
77086;BME280;66014;53.134;18.006;2023-05-03T05:20:09;102068.91;;;7.31;60.60
77086;BME280;66014;53.134;18.006;2023-05-03T05:22:38;102069.52;;;7.36;60.65
77086;BME280;66014;53.134;18.006;2023-05-03T05:25:05;102069.93;;;7.42;60.53
77086;BME280;66014;53.134;18.006;2023-05-03T05:27:31;102071.55;;;7.50;60.49
77086;BME280;66014;53.134;18.006;2023-05-03T05:29:57;102075.67;;;7.59;60.40
77086;BME280;66014;53.134;18.006;2023-05-03T05:32:24;102075.02;;;7.69;60.42
77086;BME280;66014;53.134;18.006;2023-05-03T05:34:50;102074.56;;;7.85;60.25
77086;BME280;66014;53.134;18.006;2023-05-03T05:37:21;102074.40;;;8.08;59.90
77086;BME280;66014;53.134;18.006;2023-05-03T05:39:47;102080.21;;;8.37;59.60
77086;BME280;66014;53.134;18.006;2023-05-03T05:42:13;102081.06;;;8.77;58.88
77086;BME280;66014;53.134;18.006;2023-05-03T05:44:39;102086.65;;;9.34;57.87
77086;BME280;66014;53.134;18.006;2023-05-03T05:47:05;102091.40;;;9.99;56.80
77086;BME280;66014;53.134;18.006;2023-05-03T05:49:31;102088.52;;;10.64;55.83
77086;BME280;66014;53.134;18.006;2023-05-03T05:51:57;102088.32;;;11.32;54.66
77086;BME280;66014;53.134;18.006;2023-05-03T05:54:23;102090.11;;;12.06;53.38
77086;BME280;66014;53.134;18.006;2023-05-03T05:56:48;102093.08;;;12.70;52.16
77086;BME280;66014;53.134;18.006;2023-05-03T05:59:15;102089.27;;;13.24;51.10
77086;BME280;66014;53.134;18.006;2023-05-03T06:01:44;102095.45;;;13.69;50.11
77086;BME280;66014;53.134;18.006;2023-05-03T06:04:14;102096.67;;;14.16;49.50
77086;BME280;66014;53.134;18.006;2023-05-03T06:06:40;102094.54;;;14.69;48.85
77086;BME280;66014;53.134;18.006;2023-05-03T06:09:07;102099.55;;;15.17;47.45
77086;BME280;66014;53.134;18.006;2023-05-03T06:11:33;102098.91;;;15.48;47.10
77086;BME280;66014;53.134;18.006;2023-05-03T06:14:00;102101.48;;;15.92;46.09
77086;BME280;66014;53.134;18.006;2023-05-03T06:16:29;102107.10;;;16.26;45.39
77086;BME280;66014;53.134;18.006;2023-05-03T06:18:54;102104.80;;;16.59;44.33
77086;BME280;66014;53.134;18.006;2023-05-03T06:21:21;102106.40;;;16.92;44.10
77086;BME280;66014;53.134;18.006;2023-05-03T06:23:47;102105.29;;;17.46;43.34
77086;BME280;66014;53.134;18.006;2023-05-03T06:26:13;102112.57;;;18.04;42.47
77086;BME280;66014;53.134;18.006;2023-05-03T06:28:40;102110.96;;;18.63;41.45
77086;BME280;66014;53.134;18.006;2023-05-03T06:31:06;102109.44;;;19.22;40.28
77086;BME280;66014;53.134;18.006;2023-05-03T06:33:32;102109.90;;;19.76;39.08
77086;BME280;66014;53.134;18.006;2023-05-03T06:35:57;102112.55;;;20.29;38.46
77086;BME280;66014;53.134;18.006;2023-05-03T06:38:24;102108.87;;;20.87;37.02
77086;BME280;66014;53.134;18.006;2023-05-03T06:40:50;102107.13;;;21.26;35.81
77086;BME280;66014;53.134;18.006;2023-05-03T06:43:16;102108.84;;;21.60;34.80
77086;BME280;66014;53.134;18.006;2023-05-03T06:45:43;102108.11;;;21.95;34.18
77086;BME280;66014;53.134;18.006;2023-05-03T06:48:09;102112.43;;;22.37;33.48
77086;BME280;66014;53.134;18.006;2023-05-03T06:50:35;102114.20;;;22.80;32.20
77086;BME280;66014;53.134;18.006;2023-05-03T06:53:02;102111.09;;;23.16;31.49
77086;BME280;66014;53.134;18.006;2023-05-03T06:55:28;102110.73;;;23.47;30.78
77086;BME280;66014;53.134;18.006;2023-05-03T06:57:53;102111.34;;;23.77;30.06
77086;BME280;66014;53.134;18.006;2023-05-03T07:00:19;102112.08;;;24.04;28.98
77086;BME280;66014;53.134;18.006;2023-05-03T07:02:48;102111.66;;;24.30;28.47
77086;BME280;66014;53.134;18.006;2023-05-03T07:05:13;102112.04;;;24.56;27.55
77086;BME280;66014;53.134;18.006;2023-05-03T07:07:41;102113.12;;;24.81;27.05
77086;BME280;66014;53.134;18.006;2023-05-03T07:10:07;102117.11;;;25.15;26.51
77086;BME280;66014;53.134;18.006;2023-05-03T07:12:36;102119.09;;;25.41;25.36
77086;BME280;66014;53.134;18.006;2023-05-03T07:15:02;102118.88;;;25.47;25.08
77086;BME280;66014;53.134;18.006;2023-05-03T07:17:28;102120.48;;;25.50;24.75
77086;BME280;66014;53.134;18.006;2023-05-03T07:19:55;102121.91;;;25.76;24.29
77086;BME280;66014;53.134;18.006;2023-05-03T07:22:21;102116.65;;;26.00;23.69
77086;BME280;66014;53.134;18.006;2023-05-03T07:24:53;102122.61;;;26.34;23.37
77086;BME280;66014;53.134;18.006;2023-05-03T07:27:26;102122.18;;;26.80;23.19
77086;BME280;66014;53.134;18.006;2023-05-03T07:29:52;102117.65;;;27.22;22.29
77086;BME280;66014;53.134;18.006;2023-05-03T07:32:18;102117.49;;;27.40;21.71
77086;BME280;66014;53.134;18.006;2023-05-03T07:34:44;102116.34;;;27.63;21.38
77086;BME280;66014;53.134;18.006;2023-05-03T07:37:10;102114.69;;;27.76;20.65
77086;BME280;66014;53.134;18.006;2023-05-03T07:39:36;102113.90;;;27.99;20.59
77086;BME280;66014;53.134;18.006;2023-05-03T07:42:02;102117.98;;;28.48;20.19
77086;BME280;66014;53.134;18.006;2023-05-03T07:44:27;102114.55;;;28.94;19.64
77086;BME280;66014;53.134;18.006;2023-05-03T07:46:53;102112.52;;;29.41;19.25
77086;BME280;66014;53.134;18.006;2023-05-03T07:49:19;102116.73;;;29.66;18.53
77086;BME280;66014;53.134;18.006;2023-05-03T07:51:45;102110.21;;;29.69;18.03
77086;BME280;66014;53.134;18.006;2023-05-03T07:54:11;102116.64;;;29.69;18.42
77086;BME280;66014;53.134;18.006;2023-05-03T07:56:37;102119.99;;;29.61;18.49
77086;BME280;66014;53.134;18.006;2023-05-03T07:59:03;102119.73;;;28.85;18.58
77086;BME280;66014;53.134;18.006;2023-05-03T08:01:29;102117.08;;;28.30;18.65
77086;BME280;66014;53.134;18.006;2023-05-03T08:03:55;102118.83;;;28.55;18.39
77086;BME280;66014;53.134;18.006;2023-05-03T08:06:20;102117.36;;;28.69;17.82
77086;BME280;66014;53.134;18.006;2023-05-03T08:08:46;102117.55;;;28.53;18.25
77086;BME280;66014;53.134;18.006;2023-05-03T08:11:12;102115.08;;;28.71;18.10
77086;BME280;66014;53.134;18.006;2023-05-03T08:13:38;102114.69;;;28.52;17.77
77086;BME280;66014;53.134;18.006;2023-05-03T08:16:04;102114.45;;;28.15;17.36
77086;BME280;66014;53.134;18.006;2023-05-03T08:18:31;102115.45;;;26.77;18.33
77086;BME280;66014;53.134;18.006;2023-05-03T08:20:56;102120.04;;;26.20;18.62
77086;BME280;66014;53.134;18.006;2023-05-03T08:23:23;102120.45;;;26.21;18.49
77086;BME280;66014;53.134;18.006;2023-05-03T08:25:50;102120.15;;;26.49;18.60
77086;BME280;66014;53.134;18.006;2023-05-03T08:28:16;102120.30;;;27.09;18.33
77086;BME280;66014;53.134;18.006;2023-05-03T08:30:41;102118.04;;;27.85;17.93
77086;BME280;66014;53.134;18.006;2023-05-03T08:33:07;102114.42;;;28.32;17.87
77086;BME280;66014;53.134;18.006;2023-05-03T08:35:36;102116.94;;;28.47;17.70
77086;BME280;66014;53.134;18.006;2023-05-03T08:38:03;102118.09;;;28.97;17.54
77086;BME280;66014;53.134;18.006;2023-05-03T08:40:29;102118.27;;;29.56;17.04
77086;BME280;66014;53.134;18.006;2023-05-03T08:43:06;102120.48;;;30.18;16.75
77086;BME280;66014;53.134;18.006;2023-05-03T08:45:33;102122.95;;;30.73;16.28
77086;BME280;66014;53.134;18.006;2023-05-03T08:47:59;102120.09;;;30.82;15.95
77086;BME280;66014;53.134;18.006;2023-05-03T08:50:27;102123.83;;;29.88;16.27
77086;BME280;66014;53.134;18.006;2023-05-03T08:52:53;102127.55;;;29.30;16.05
77086;BME280;66014;53.134;18.006;2023-05-03T08:55:19;102119.54;;;29.05;15.96
77086;BME280;66014;53.134;18.006;2023-05-03T08:57:45;102128.39;;;29.16;15.80
77086;BME280;66014;53.134;18.006;2023-05-03T09:00:11;102131.80;;;29.16;15.77
77086;BME280;66014;53.134;18.006;2023-05-03T09:02:37;102129.27;;;29.35;15.59
77086;BME280;66014;53.134;18.006;2023-05-03T09:05:31;102130.85;;;29.68;15.68
77086;BME280;66014;53.134;18.006;2023-05-03T09:08:05;102132.16;;;30.54;15.29
77086;BME280;66014;53.134;18.006;2023-05-03T09:10:38;102129.95;;;31.31;15.19
77086;BME280;66014;53.134;18.006;2023-05-03T09:13:05;102129.60;;;31.77;14.72
77086;BME280;66014;53.134;18.006;2023-05-03T09:15:33;102133.36;;;31.33;14.24
77086;BME280;66014;53.134;18.006;2023-05-03T09:20:38;102127.48;;;31.67;14.40
77086;BME280;66014;53.134;18.006;2023-05-03T09:23:08;102125.50;;;31.95;14.15
77086;BME280;66014;53.134;18.006;2023-05-03T09:25:47;102127.69;;;31.15;14.23
77086;BME280;66014;53.134;18.006;2023-05-03T09:28:15;102127.02;;;30.26;14.68
77086;BME280;66014;53.134;18.006;2023-05-03T09:30:43;102125.64;;;30.25;14.89
77086;BME280;66014;53.134;18.006;2023-05-03T09:33:27;102123.60;;;30.64;14.47
77086;BME280;66014;53.134;18.006;2023-05-03T09:35:58;102129.95;;;30.73;14.47
77086;BME280;66014;53.134;18.006;2023-05-03T09:38:29;102126.41;;;30.94;14.88
77086;BME280;66014;53.134;18.006;2023-05-03T09:40:56;102124.84;;;30.26;14.78
77086;BME280;66014;53.134;18.006;2023-05-03T09:43:22;102123.73;;;28.80;15.46
77086;BME280;66014;53.134;18.006;2023-05-03T09:45:48;102125.55;;;27.43;16.40
77086;BME280;66014;53.134;18.006;2023-05-03T09:48:14;102130.38;;;26.27;17.01
77086;BME280;66014;53.134;18.006;2023-05-03T09:50:42;102123.27;;;26.12;17.15
77086;BME280;66014;53.134;18.006;2023-05-03T09:53:08;102128.18;;;26.53;16.89
77086;BME280;66014;53.134;18.006;2023-05-03T09:55:38;102117.39;;;27.34;16.90
77086;BME280;66014;53.134;18.006;2023-05-03T09:58:08;102123.20;;;27.73;16.97
77086;BME280;66014;53.134;18.006;2023-05-03T10:00:39;102131.42;;;27.29;17.17
77086;BME280;66014;53.134;18.006;2023-05-03T10:03:09;102130.28;;;26.36;17.31
77086;BME280;66014;53.134;18.006;2023-05-03T10:05:48;102125.67;;;25.44;17.87
77086;BME280;66014;53.134;18.006;2023-05-03T10:08:21;102121.99;;;24.68;18.33
77086;BME280;66014;53.134;18.006;2023-05-03T10:10:51;102120.61;;;25.14;18.31
77086;BME280;66014;53.134;18.006;2023-05-03T10:13:22;102116.77;;;26.02;17.48
77086;BME280;66014;53.134;18.006;2023-05-03T10:15:55;102111.23;;;26.66;17.02
77086;BME280;66014;53.134;18.006;2023-05-03T10:18:25;102108.47;;;27.37;17.08
77086;BME280;66014;53.134;18.006;2023-05-03T10:21:01;102113.05;;;28.02;16.87
77086;BME280;66014;53.134;18.006;2023-05-03T10:23:29;102113.66;;;27.55;16.83
77086;BME280;66014;53.134;18.006;2023-05-03T10:26:14;102116.50;;;26.68;17.37
77086;BME280;66014;53.134;18.006;2023-05-03T10:28:40;102118.02;;;25.67;17.72
77086;BME280;66014;53.134;18.006;2023-05-03T10:34:21;102113.94;;;26.18;17.14
77086;BME280;66014;53.134;18.006;2023-05-03T10:36:48;102108.80;;;27.08;16.46
77086;BME280;66014;53.134;18.006;2023-05-03T10:39:21;102103.89;;;28.11;15.72
77086;BME280;66014;53.134;18.006;2023-05-03T10:41:57;102102.60;;;27.68;15.69
77086;BME280;66014;53.134;18.006;2023-05-03T10:44:33;102100.34;;;27.37;15.94
77086;BME280;66014;53.134;18.006;2023-05-03T10:47:12;102099.98;;;27.95;15.80
77086;BME280;66014;53.134;18.006;2023-05-03T10:49:39;102091.48;;;27.84;15.48
77086;BME280;66014;53.134;18.006;2023-05-03T10:55:13;102089.92;;;26.31;16.13
77086;BME280;66014;53.134;18.006;2023-05-03T10:57:41;102092.04;;;25.15;16.96
77086;BME280;66014;53.134;18.006;2023-05-03T11:00:13;102096.42;;;24.45;17.86
77086;BME280;66014;53.134;18.006;2023-05-03T11:03:12;102098.16;;;23.84;18.21
77086;BME280;66014;53.134;18.006;2023-05-03T11:05:46;102101.55;;;23.18;18.89
77086;BME280;66014;53.134;18.006;2023-05-03T11:08:17;102107.69;;;22.94;19.39
77086;BME280;66014;53.134;18.006;2023-05-03T11:10:49;102109.39;;;22.66;19.76
77086;BME280;66014;53.134;18.006;2023-05-03T11:13:16;102109.33;;;22.32;20.10
77086;BME280;66014;53.134;18.006;2023-05-03T11:15:42;102111.29;;;21.95;20.41
77086;BME280;66014;53.134;18.006;2023-05-03T11:18:09;102109.59;;;21.74;20.76
77086;BME280;66014;53.134;18.006;2023-05-03T11:20:36;102117.70;;;22.46;20.58
77086;BME280;66014;53.134;18.006;2023-05-03T11:23:03;102110.33;;;23.99;19.94
77086;BME280;66014;53.134;18.006;2023-05-03T11:25:30;102113.01;;;25.50;19.23
77086;BME280;66014;53.134;18.006;2023-05-03T11:28:02;102113.63;;;27.10;18.03
77086;BME280;66014;53.134;18.006;2023-05-03T11:30:33;102116.98;;;26.92;18.07
77086;BME280;66014;53.134;18.006;2023-05-03T11:33:02;102118.63;;;26.59;18.15
77086;BME280;66014;53.134;18.006;2023-05-03T11:35:29;102119.58;;;26.16;18.01
77086;BME280;66014;53.134;18.006;2023-05-03T11:37:56;102118.28;;;25.72;18.31
77086;BME280;66014;53.134;18.006;2023-05-03T11:40:22;102119.50;;;26.38;17.73
77086;BME280;66014;53.134;18.006;2023-05-03T11:42:58;102117.27;;;27.57;17.12
77086;BME280;66014;53.134;18.006;2023-05-03T11:45:45;102115.16;;;27.49;17.15
77086;BME280;66014;53.134;18.006;2023-05-03T11:48:13;102111.91;;;27.00;16.94
77086;BME280;66014;53.134;18.006;2023-05-03T11:53:13;102106.56;;;25.21;17.41
77086;BME280;66014;53.134;18.006;2023-05-03T11:55:44;102107.16;;;24.35;18.15
77086;BME280;66014;53.134;18.006;2023-05-03T11:58:14;102106.80;;;23.53;18.89
77086;BME280;66014;53.134;18.006;2023-05-03T12:00:45;102114.91;;;22.91;19.41
77086;BME280;66014;53.134;18.006;2023-05-03T12:03:25;102112.85;;;22.43;19.84
77086;BME280;66014;53.134;18.006;2023-05-03T12:05:52;102115.13;;;22.18;20.31
77086;BME280;66014;53.134;18.006;2023-05-03T12:08:26;102113.43;;;21.85;20.71
77086;BME280;66014;53.134;18.006;2023-05-03T12:10:52;102110.21;;;21.54;21.06
77086;BME280;66014;53.134;18.006;2023-05-03T12:13:31;102109.55;;;21.20;21.34
77086;BME280;66014;53.134;18.006;2023-05-03T12:15:58;102114.17;;;20.96;21.64
77086;BME280;66014;53.134;18.006;2023-05-03T12:18:25;102114.66;;;20.98;21.96
77086;BME280;66014;53.134;18.006;2023-05-03T12:20:56;102113.36;;;20.81;21.96
77086;BME280;66014;53.134;18.006;2023-05-03T12:23:23;102113.80;;;20.73;22.18
77086;BME280;66014;53.134;18.006;2023-05-03T12:25:50;102118.02;;;21.78;21.75
77086;BME280;66014;53.134;18.006;2023-05-03T12:28:17;102114.23;;;24.39;20.32
77086;BME280;66014;53.134;18.006;2023-05-03T12:30:43;102120.55;;;26.95;19.37
77086;BME280;66014;53.134;18.006;2023-05-03T12:33:10;102118.26;;;29.19;17.78
77086;BME280;66014;53.134;18.006;2023-05-03T12:35:36;102116.25;;;31.05;16.23
77086;BME280;66014;53.134;18.006;2023-05-03T12:38:02;102108.79;;;32.56;15.23
77086;BME280;66014;53.134;18.006;2023-05-03T12:40:39;102111.47;;;33.48;13.81
77086;BME280;66014;53.134;18.006;2023-05-03T12:43:09;102112.03;;;33.95;13.49
77086;BME280;66014;53.134;18.006;2023-05-03T12:45:35;102111.66;;;34.61;13.03
77086;BME280;66014;53.134;18.006;2023-05-03T12:48:01;102111.85;;;35.08;12.30
77086;BME280;66014;53.134;18.006;2023-05-03T12:50:27;102104.77;;;35.67;11.93
77086;BME280;66014;53.134;18.006;2023-05-03T12:52:54;102108.09;;;34.88;12.03
77086;BME280;66014;53.134;18.006;2023-05-03T12:55:21;102104.10;;;33.75;12.32
77086;BME280;66014;53.134;18.006;2023-05-03T12:57:46;102098.69;;;31.97;12.91
77086;BME280;66014;53.134;18.006;2023-05-03T13:00:13;102104.20;;;29.83;13.70
77086;BME280;66014;53.134;18.006;2023-05-03T13:02:39;102102.77;;;28.10;14.60
77086;BME280;66014;53.134;18.006;2023-05-03T13:05:06;102098.44;;;26.79;15.37